ADDS METAR Data INFO
IDs: Format: Raw Decoded Include TAF

Data at: 0842 UTC 27 Jun 2017

KHDO 270756Z AUTO 10003KT 10SM -RA BKN007 OVC100 24/23 A3002 RMK AO2 RAB52 CIG 006V009 P0000 T02390228 $
KHDO 270751Z AUTO 10004KT 10SM SCT009 OVC100 24/23 A3003 RMK AO2 SLP151 T02390228 $
KHDO 270651Z AUTO 08007KT 10SM OVC110 24/22 A3002 RMK AO2 RAB0559E18 SLP149 P0000 T02390222 $
KHDO 270551Z AUTO 04011KT 10SM FEW023 OVC085 24/23 A3005 RMK AO2 SLP158 60003 T02390228 10306 20239 403500233 50012 $
KHDO 270451Z AUTO 04007KT 10SM SCT085 24/23 A3005 RMK AO2 RAE28 SLP161 P0001 T02390228 $
KHDO 270351Z AUTO 07006KT 10SM -RA SCT033 SCT050 BKN080 25/23 A3004 RMK AO2 LTG DSNT N RAB15 SLP155 P0002 T02500228 $
KHDO 270340Z AUTO 07003KT 8SM RA SCT085 BKN110 25/23 A3004 RMK AO2 RAB15 P0002 T02500228 $
KHDO 270325Z AUTO 05006KT 10SM VCTS -RA BKN090 25/23 A3003 RMK AO2 LTG DSNT SW RAB15 P0000 T02500228 $
KHDO 270317Z AUTO 06006KT 10SM -RA BKN090 BKN110 26/22 A3003 RMK AO2 LTG DSNT SW AND W RAB15 P0000 T02560222 $
KHDO 270302Z AUTO 05007KT 10SM VCTS FEW080 OVC095 26/22 A3003 RMK AO2 LTG DSNT W AND NW T02610222 $
KHDO 270251Z AUTO 08007KT 10SM SCT080 BKN100 BKN120 26/22 A3001 RMK AO2 LTG DSNT W AND NW SLP147 T02610222 51015 $
KHDO 270243Z AUTO 08006KT 10SM SCT085 BKN110 26/22 A3000 RMK AO2 LTG DSNT W AND NW T02610222 $
KHDO 270228Z AUTO 07009KT 10SM VCTS FEW120 26/22 A3001 RMK AO2 LTG DSNT W T02610222 $
KHDO 270151Z AUTO 07009KT 10SM SCT085 26/23 A3000 RMK AO2 LTG DSNT N AND NW SLP145 T02610228 $
KHDO 270051Z AUTO 10011KT 10SM SCT065 28/21 A2998 RMK AO2 LTG DSNT W-N SLP137 T02830211 $
KHDO 262351Z AUTO 11017G22KT 10SM FEW047 BKN060 31/21 A2997 RMK AO2 LTG DSNT W SLP132 T03060206 10350 20306 55010 $
KHDO 262251Z AUTO 14015KT 10SM FEW060 SCT075 BKN085 34/19 A2996 RMK AO2 SLP128 T03390194 $
KHDO 262151Z AUTO 10007KT 10SM CLR 34/20 A2998 RMK AO2 SLP135 T03440200 $
KHDO 262051Z AUTO 07009KT 10SM CLR 34/20 A3000 RMK AO2 SLP141 T03440200 58027 $
KHDO 261951Z AUTO 13008KT 10SM BKN045 BKN070 BKN100 32/21 A3003 RMK AO2 SLP151 T03170206 $
KHDO 261851Z AUTO 09008KT 10SM BKN049 BKN060 32/20 A3005 RMK AO2 SLP159 T03170200 $
KHDO 261751Z AUTO 23003KT 10SM SCT039 SCT050 OVC070 31/20 A3008 RMK AO2 SLP169 T03110200 10317 20233 58017 $
KHDO 261651Z AUTO 00000KT 10SM FEW038 30/21 A3010 RMK AO2 SLP178 T03000211 $
KHDO 261551Z AUTO VRB04KT 10SM FEW025 29/21 A3012 RMK AO2 SLP183 T02940211 $
KHDO 261451Z AUTO 05003KT 10SM FEW026 FEW030 SCT049 26/22 A3013 RMK AO2 SLP188 T02610222 50008
KHDO 261444Z AUTO 00000KT 10SM SCT026 SCT038 SCT049 26/22 A3013 RMK AO2 T02610222
KHDO 261436Z AUTO VRB03KT 10SM FEW012 SCT024 BKN029 26/22 A3014 RMK AO2 T02610222
KHDO 261417Z AUTO 11003KT 10SM SCT008 SCT012 BKN039 26/23 A3014 RMK AO2 T02610228
KHDO 261351Z AUTO 10003KT 10SM BKN009 BKN015 25/23 A3014 RMK AO2 CIG 008V012 SLP190 T02500228
KHDO 261336Z AUTO 07005KT 10SM BKN009 BKN013 OVC027 26/23 A3014 RMK AO2 CIG 006V010 T02560228
KHDO 261301Z AUTO 09005KT 10SM OVC007 24/22 A3012 RMK AO2 CIG 005V008 T02390222
KHDO 261251Z AUTO 10004KT 10SM BKN005 OVC009 24/22 A3012 RMK AO2 SLP183 T02390222
KHDO 261237Z AUTO 08004KT 10SM OVC005 24/22 A3011 RMK AO2 T02390222
KHDO 261214Z AUTO 06005KT 10SM BKN007 23/22 A3011 RMK AO2 T02330222
KHDO 261212Z AUTO 07005KT 10SM SCT009 23/22 A3011 RMK AO2 T02330222
KHDO 261204Z AUTO 07005KT 10SM BKN009 23/22 A3011 RMK AO2 T02330222
KHDO 261151Z AUTO 09003KT 10SM OVC010 24/22 A3011 RMK AO2 CIG 008V013 SLP179 70028 T02390222 10244 20233 55004
KHDO 261051Z AUTO 09003KT 10SM OVC010 24/22 A3011 RMK AO2 SLP178 T02390222
KHDO 261015Z AUTO 10005KT 10SM OVC011 24/22 A3011 RMK AO2 T02390222
KHDO 260951Z AUTO 08005KT 10SM OVC009 24/22 A3011 RMK AO2 CIG 008V012 SLP178 T02440222
KHDO 260858Z AUTO 07003KT 10SM OVC008 24/22 A3012 RMK AO2 CIG 008V012 T02440222
KHDO 260851Z AUTO 05003KT 10SM BKN010 OVC016 24/22 A3012 RMK AO2 CIG 008V013 SLP183 T02440222 50000
KHDO 260809Z AUTO 07004KT 10SM BKN011 OVC020 24/22 A3012 RMK AO2 T02440217
KHDO 260751Z AUTO 06005KT 10SM FEW012 OVC020 24/22 A3013 RMK AO2 SLP185 T02390217
KHDO 260739Z AUTO 07005KT 10SM OVC018 24/22 A3012 RMK AO2 T02390217
KHDO 260716Z AUTO 06005KT 10SM OVC014 24/22 A3012 RMK AO2 T02390217
KHDO 260658Z AUTO 07005KT 10SM BKN015 BKN065 24/22 A3012 RMK AO2 T02390217
KHDO 260651Z AUTO 09005KT 10SM SCT016 BKN047 BKN065 24/22 A3012 RMK AO2 SLP183 T02390217
KHDO 260551Z AUTO 07006KT 10SM BKN040 24/21 A3012 RMK AO2 SLP182 T02390211 10306 20239 403280211 50011
KHDO 260451Z AUTO 08005KT 10SM CLR 24/21 A3013 RMK AO2 SLP186 T02440211
KHDO 260351Z AUTO 12007KT 10SM CLR 26/22 A3010 RMK AO2 SLP176 T02560222
KHDO 260251Z AUTO 12008KT 10SM CLR 27/21 A3009 RMK AO2 SLP171 T02670211 53005
KHDO 260151Z AUTO 11009KT 10SM CLR 28/21 A3008 RMK AO2 SLP169 T02780206
KHDO 260051Z AUTO 08009KT 10SM FEW110 29/20 A3007 RMK AO2 SLP165 T02940200
KHDO 252351Z AUTO 16008KT 10SM CLR 30/22 A3007 RMK AO2 SLP167 60028 T03000222 10328 20256 55014
KHDO 252251Z AUTO 16015KT 10SM FEW100 32/22 A3007 RMK AO2 SLP166 T03170217
KHDO 252151Z AUTO 16008KT 10SM CLR 31/22 A3009 RMK AO2 SLP173 T03060222
KHDO 252051Z AUTO 16007KT 10SM FEW017 BKN080 OVC100 28/23 A3011 RMK AO2 RAB18E40 SLP182 P0002 60028 T02780233 56010


Page loaded:  08:42 UTC  |   01:42 AM Pacific  |   02:42 AM Mountain  |   03:42 AM Central  |   04:42 AM Eastern

 

ADVISORIES

FORECASTS

FORECASTS

OBSERVATIONS

USER TOOLS

ABOUT US